sensor_id;sensor_type;location;lat;lon;timestamp;P1;durP1;ratioP1;P2;durP2;ratioP2
5704;SDS011;2877;48.238;11.160;2022-07-04T00:02:17;2.70;;;2.30;;
5704;SDS011;2877;48.238;11.160;2022-07-04T00:04:43;3.77;;;2.17;;
5704;SDS011;2877;48.238;11.160;2022-07-04T00:07:08;2.80;;;2.60;;
5704;SDS011;2877;48.238;11.160;2022-07-04T00:09:34;4.70;;;2.60;;
5704;SDS011;2877;48.238;11.160;2022-07-04T00:12:00;4.47;;;2.20;;
5704;SDS011;2877;48.238;11.160;2022-07-04T00:14:25;2.83;;;2.63;;
5704;SDS011;2877;48.238;11.160;2022-07-04T00:16:51;2.53;;;2.33;;
5704;SDS011;2877;48.238;11.160;2022-07-04T00:19:16;3.37;;;2.83;;
5704;SDS011;2877;48.238;11.160;2022-07-04T00:21:42;2.67;;;2.47;;
5704;SDS011;2877;48.238;11.160;2022-07-04T00:24:07;2.50;;;2.30;;
5704;SDS011;2877;48.238;11.160;2022-07-04T00:26:33;3.00;;;2.37;;
5704;SDS011;2877;48.238;11.160;2022-07-04T00:28:59;2.70;;;2.20;;
5704;SDS011;2877;48.238;11.160;2022-07-04T00:31:24;2.57;;;2.43;;
5704;SDS011;2877;48.238;11.160;2022-07-04T00:33:50;2.70;;;2.50;;
5704;SDS011;2877;48.238;11.160;2022-07-04T00:36:15;2.80;;;2.60;;
5704;SDS011;2877;48.238;11.160;2022-07-04T00:38:41;3.70;;;2.33;;
5704;SDS011;2877;48.238;11.160;2022-07-04T00:41:07;4.00;;;2.80;;
5704;SDS011;2877;48.238;11.160;2022-07-04T00:43:33;4.17;;;2.17;;
5704;SDS011;2877;48.238;11.160;2022-07-04T00:46:02;8.83;;;2.70;;
5704;SDS011;2877;48.238;11.160;2022-07-04T00:48:29;2.70;;;2.50;;
5704;SDS011;2877;48.238;11.160;2022-07-04T00:50:55;2.53;;;2.33;;
5704;SDS011;2877;48.238;11.160;2022-07-04T00:53:21;2.77;;;2.53;;
5704;SDS011;2877;48.238;11.160;2022-07-04T00:55:50;4.27;;;2.97;;
5704;SDS011;2877;48.238;11.160;2022-07-04T00:58:20;3.33;;;2.57;;
5704;SDS011;2877;48.238;11.160;2022-07-04T01:00:47;3.40;;;2.40;;
5704;SDS011;2877;48.238;11.160;2022-07-04T01:03:13;7.60;;;2.80;;
5704;SDS011;2877;48.238;11.160;2022-07-04T01:05:39;3.60;;;2.10;;
5704;SDS011;2877;48.238;11.160;2022-07-04T01:08:05;3.53;;;2.30;;
5704;SDS011;2877;48.238;11.160;2022-07-04T01:10:31;6.50;;;1.90;;
5704;SDS011;2877;48.238;11.160;2022-07-04T01:12:57;2.83;;;2.13;;
5704;SDS011;2877;48.238;11.160;2022-07-04T01:15:22;2.40;;;2.10;;
5704;SDS011;2877;48.238;11.160;2022-07-04T01:17:48;6.63;;;2.60;;
5704;SDS011;2877;48.238;11.160;2022-07-04T01:20:15;2.77;;;2.17;;
5704;SDS011;2877;48.238;11.160;2022-07-04T01:22:41;2.50;;;2.30;;
5704;SDS011;2877;48.238;11.160;2022-07-04T01:25:08;2.80;;;2.60;;
5704;SDS011;2877;48.238;11.160;2022-07-04T01:27:34;3.73;;;2.47;;
5704;SDS011;2877;48.238;11.160;2022-07-04T01:30:00;2.10;;;2.00;;
5704;SDS011;2877;48.238;11.160;2022-07-04T01:32:26;2.67;;;2.47;;
5704;SDS011;2877;48.238;11.160;2022-07-04T01:34:51;7.47;;;2.37;;
5704;SDS011;2877;48.238;11.160;2022-07-04T01:37:17;2.37;;;2.27;;
5704;SDS011;2877;48.238;11.160;2022-07-04T01:39:43;2.10;;;2.00;;
5704;SDS011;2877;48.238;11.160;2022-07-04T01:42:09;2.53;;;2.30;;
5704;SDS011;2877;48.238;11.160;2022-07-04T01:44:35;4.53;;;2.23;;
5704;SDS011;2877;48.238;11.160;2022-07-04T01:47:01;1.90;;;1.80;;
5704;SDS011;2877;48.238;11.160;2022-07-04T01:49:27;3.83;;;2.20;;
5704;SDS011;2877;48.238;11.160;2022-07-04T01:55:14;3.13;;;2.00;;
5704;SDS011;2877;48.238;11.160;2022-07-04T01:57:40;3.50;;;2.30;;
5704;SDS011;2877;48.238;11.160;2022-07-04T02:00:07;2.40;;;1.93;;
5704;SDS011;2877;48.238;11.160;2022-07-04T02:02:52;2.40;;;2.30;;
5704;SDS011;2877;48.238;11.160;2022-07-04T02:05:18;2.10;;;2.00;;
5704;SDS011;2877;48.238;11.160;2022-07-04T02:07:44;3.27;;;1.93;;
5704;SDS011;2877;48.238;11.160;2022-07-04T02:10:10;3.20;;;2.03;;
5704;SDS011;2877;48.238;11.160;2022-07-04T02:12:36;2.70;;;2.50;;
5704;SDS011;2877;48.238;11.160;2022-07-04T02:15:21;2.87;;;2.67;;
5704;SDS011;2877;48.238;11.160;2022-07-04T02:17:46;3.20;;;2.30;;
5704;SDS011;2877;48.238;11.160;2022-07-04T02:20:12;2.20;;;2.10;;
5704;SDS011;2877;48.238;11.160;2022-07-04T02:22:38;4.53;;;2.23;;
5704;SDS011;2877;48.238;11.160;2022-07-04T02:25:04;1.80;;;1.70;;
5704;SDS011;2877;48.238;11.160;2022-07-04T02:27:30;2.40;;;2.07;;
5704;SDS011;2877;48.238;11.160;2022-07-04T02:29:56;2.13;;;1.93;;
5704;SDS011;2877;48.238;11.160;2022-07-04T02:32:22;3.37;;;2.00;;
5704;SDS011;2877;48.238;11.160;2022-07-04T02:34:47;3.10;;;2.30;;
5704;SDS011;2877;48.238;11.160;2022-07-04T02:37:13;4.43;;;2.40;;
5704;SDS011;2877;48.238;11.160;2022-07-04T02:39:39;3.00;;;2.70;;
5704;SDS011;2877;48.238;11.160;2022-07-04T02:42:04;2.47;;;2.07;;
5704;SDS011;2877;48.238;11.160;2022-07-04T02:44:30;2.57;;;2.37;;
5704;SDS011;2877;48.238;11.160;2022-07-04T02:46:56;2.30;;;2.10;;
5704;SDS011;2877;48.238;11.160;2022-07-04T02:49:22;2.23;;;2.13;;
5704;SDS011;2877;48.238;11.160;2022-07-04T02:51:47;2.10;;;2.00;;
5704;SDS011;2877;48.238;11.160;2022-07-04T02:54:13;1.73;;;1.63;;
5704;SDS011;2877;48.238;11.160;2022-07-04T02:56:40;4.10;;;2.40;;
5704;SDS011;2877;48.238;11.160;2022-07-04T02:59:06;2.17;;;1.97;;
5704;SDS011;2877;48.238;11.160;2022-07-04T03:01:32;3.43;;;2.20;;
5704;SDS011;2877;48.238;11.160;2022-07-04T03:03:58;2.30;;;2.10;;
5704;SDS011;2877;48.238;11.160;2022-07-04T03:06:23;2.30;;;2.13;;
5704;SDS011;2877;48.238;11.160;2022-07-04T03:08:49;1.73;;;1.63;;
5704;SDS011;2877;48.238;11.160;2022-07-04T03:11:14;3.03;;;2.10;;
5704;SDS011;2877;48.238;11.160;2022-07-04T03:13:40;2.33;;;2.13;;
5704;SDS011;2877;48.238;11.160;2022-07-04T03:16:06;2.43;;;2.33;;
5704;SDS011;2877;48.238;11.160;2022-07-04T03:18:32;2.60;;;2.40;;
5704;SDS011;2877;48.238;11.160;2022-07-04T03:20:58;2.30;;;2.10;;
5704;SDS011;2877;48.238;11.160;2022-07-04T03:23:23;4.53;;;2.10;;
5704;SDS011;2877;48.238;11.160;2022-07-04T03:25:49;2.80;;;2.60;;
5704;SDS011;2877;48.238;11.160;2022-07-04T03:28:15;2.40;;;2.20;;
5704;SDS011;2877;48.238;11.160;2022-07-04T03:30:40;2.20;;;2.00;;
5704;SDS011;2877;48.238;11.160;2022-07-04T03:33:07;2.23;;;2.03;;
5704;SDS011;2877;48.238;11.160;2022-07-04T03:35:32;7.40;;;2.50;;
5704;SDS011;2877;48.238;11.160;2022-07-04T03:37:58;2.00;;;1.90;;
5704;SDS011;2877;48.238;11.160;2022-07-04T03:40:23;2.60;;;2.23;;
5704;SDS011;2877;48.238;11.160;2022-07-04T03:42:49;2.13;;;2.00;;
5704;SDS011;2877;48.238;11.160;2022-07-04T03:45:15;2.53;;;2.33;;
5704;SDS011;2877;48.238;11.160;2022-07-04T03:47:41;2.60;;;2.40;;
5704;SDS011;2877;48.238;11.160;2022-07-04T03:50:07;2.47;;;2.27;;
5704;SDS011;2877;48.238;11.160;2022-07-04T03:52:33;1.93;;;1.80;;
5704;SDS011;2877;48.238;11.160;2022-07-04T03:54:58;2.73;;;2.33;;
5704;SDS011;2877;48.238;11.160;2022-07-04T03:57:24;1.80;;;1.70;;
5704;SDS011;2877;48.238;11.160;2022-07-04T03:59:49;7.60;;;2.00;;
5704;SDS011;2877;48.238;11.160;2022-07-04T04:02:15;4.60;;;2.27;;
5704;SDS011;2877;48.238;11.160;2022-07-04T04:04:41;3.80;;;2.37;;
5704;SDS011;2877;48.238;11.160;2022-07-04T04:07:25;2.83;;;2.20;;
5704;SDS011;2877;48.238;11.160;2022-07-04T04:09:51;2.60;;;2.30;;
5704;SDS011;2877;48.238;11.160;2022-07-04T04:12:16;2.60;;;2.40;;
5704;SDS011;2877;48.238;11.160;2022-07-04T04:14:42;6.00;;;2.60;;
5704;SDS011;2877;48.238;11.160;2022-07-04T04:17:08;2.03;;;1.93;;
5704;SDS011;2877;48.238;11.160;2022-07-04T04:19:33;3.47;;;2.37;;
5704;SDS011;2877;48.238;11.160;2022-07-04T04:21:59;3.07;;;2.43;;
5704;SDS011;2877;48.238;11.160;2022-07-04T04:24:24;2.77;;;2.30;;
5704;SDS011;2877;48.238;11.160;2022-07-04T04:26:50;4.57;;;2.50;;
5704;SDS011;2877;48.238;11.160;2022-07-04T04:29:16;4.80;;;2.30;;
5704;SDS011;2877;48.238;11.160;2022-07-04T04:31:41;2.20;;;2.10;;
5704;SDS011;2877;48.238;11.160;2022-07-04T04:34:07;1.80;;;1.70;;
5704;SDS011;2877;48.238;11.160;2022-07-04T04:36:33;3.07;;;2.53;;
5704;SDS011;2877;48.238;11.160;2022-07-04T04:38:58;2.97;;;1.93;;
5704;SDS011;2877;48.238;11.160;2022-07-04T04:41:24;7.93;;;2.30;;
5704;SDS011;2877;48.238;11.160;2022-07-04T04:43:49;2.20;;;2.00;;
5704;SDS011;2877;48.238;11.160;2022-07-04T04:46:15;1.90;;;1.80;;
5704;SDS011;2877;48.238;11.160;2022-07-04T04:48:41;3.87;;;1.70;;
5704;SDS011;2877;48.238;11.160;2022-07-04T04:51:06;1.80;;;1.70;;
5704;SDS011;2877;48.238;11.160;2022-07-04T04:53:32;2.17;;;1.90;;
5704;SDS011;2877;48.238;11.160;2022-07-04T04:55:57;3.33;;;1.50;;
5704;SDS011;2877;48.238;11.160;2022-07-04T04:58:23;2.03;;;1.93;;
5704;SDS011;2877;48.238;11.160;2022-07-04T05:00:49;2.07;;;1.87;;
5704;SDS011;2877;48.238;11.160;2022-07-04T05:03:15;1.70;;;1.60;;
5704;SDS011;2877;48.238;11.160;2022-07-04T05:05:42;1.57;;;1.47;;
5704;SDS011;2877;48.238;11.160;2022-07-04T05:08:08;2.00;;;1.90;;
5704;SDS011;2877;48.238;11.160;2022-07-04T05:10:33;3.60;;;1.83;;
5704;SDS011;2877;48.238;11.160;2022-07-04T05:12:59;3.57;;;1.63;;
5704;SDS011;2877;48.238;11.160;2022-07-04T05:15:25;3.87;;;1.70;;
5704;SDS011;2877;48.238;11.160;2022-07-04T05:17:51;2.43;;;2.10;;
5704;SDS011;2877;48.238;11.160;2022-07-04T05:20:16;2.40;;;1.93;;
5704;SDS011;2877;48.238;11.160;2022-07-04T05:22:42;1.80;;;1.70;;
5704;SDS011;2877;48.238;11.160;2022-07-04T05:25:08;3.30;;;1.80;;
5704;SDS011;2877;48.238;11.160;2022-07-04T05:27:33;3.57;;;1.80;;
5704;SDS011;2877;48.238;11.160;2022-07-04T05:29:59;7.87;;;2.10;;
5704;SDS011;2877;48.238;11.160;2022-07-04T05:32:26;2.07;;;1.67;;
5704;SDS011;2877;48.238;11.160;2022-07-04T05:34:52;1.70;;;1.60;;
5704;SDS011;2877;48.238;11.160;2022-07-04T05:37:18;1.40;;;1.30;;
5704;SDS011;2877;48.238;11.160;2022-07-04T05:39:44;2.20;;;2.00;;
5704;SDS011;2877;48.238;11.160;2022-07-04T05:42:09;3.60;;;1.90;;
5704;SDS011;2877;48.238;11.160;2022-07-04T05:44:35;1.83;;;1.73;;
5704;SDS011;2877;48.238;11.160;2022-07-04T05:47:01;3.33;;;1.87;;
5704;SDS011;2877;48.238;11.160;2022-07-04T05:49:26;1.70;;;1.60;;
5704;SDS011;2877;48.238;11.160;2022-07-04T05:51:52;1.87;;;1.70;;
5704;SDS011;2877;48.238;11.160;2022-07-04T05:54:18;1.87;;;1.77;;
5704;SDS011;2877;48.238;11.160;2022-07-04T05:56:43;1.83;;;1.73;;
5704;SDS011;2877;48.238;11.160;2022-07-04T05:59:09;1.90;;;1.77;;
5704;SDS011;2877;48.238;11.160;2022-07-04T06:01:37;1.77;;;1.67;;
5704;SDS011;2877;48.238;11.160;2022-07-04T06:04:03;4.00;;;1.80;;
5704;SDS011;2877;48.238;11.160;2022-07-04T06:06:30;1.97;;;1.80;;
5704;SDS011;2877;48.238;11.160;2022-07-04T06:08:56;2.40;;;1.80;;
5704;SDS011;2877;48.238;11.160;2022-07-04T06:11:22;1.70;;;1.57;;
5704;SDS011;2877;48.238;11.160;2022-07-04T06:13:48;2.53;;;2.23;;
5704;SDS011;2877;48.238;11.160;2022-07-04T06:16:14;3.80;;;2.10;;
5704;SDS011;2877;48.238;11.160;2022-07-04T06:18:40;3.20;;;1.73;;
5704;SDS011;2877;48.238;11.160;2022-07-04T06:21:06;2.33;;;1.80;;
5704;SDS011;2877;48.238;11.160;2022-07-04T06:23:32;7.20;;;1.90;;
5704;SDS011;2877;48.238;11.160;2022-07-04T06:25:57;5.97;;;1.97;;
5704;SDS011;2877;48.238;11.160;2022-07-04T06:28:23;3.63;;;1.70;;
5704;SDS011;2877;48.238;11.160;2022-07-04T06:30:49;10.50;;;2.10;;
5704;SDS011;2877;48.238;11.160;2022-07-04T06:33:14;2.60;;;2.10;;
5704;SDS011;2877;48.238;11.160;2022-07-04T06:35:40;1.70;;;1.60;;
5704;SDS011;2877;48.238;11.160;2022-07-04T06:38:20;1.90;;;1.80;;
5704;SDS011;2877;48.238;11.160;2022-07-04T06:40:48;4.20;;;1.87;;
5704;SDS011;2877;48.238;11.160;2022-07-04T06:43:15;1.70;;;1.60;;
5704;SDS011;2877;48.238;11.160;2022-07-04T06:45:41;3.37;;;1.60;;
5704;SDS011;2877;48.238;11.160;2022-07-04T06:48:06;2.70;;;2.17;;
5704;SDS011;2877;48.238;11.160;2022-07-04T06:50:33;5.07;;;1.70;;
5704;SDS011;2877;48.238;11.160;2022-07-04T06:52:59;1.90;;;1.80;;
5704;SDS011;2877;48.238;11.160;2022-07-04T06:55:26;1.80;;;1.70;;
5704;SDS011;2877;48.238;11.160;2022-07-04T06:57:52;3.13;;;2.00;;
5704;SDS011;2877;48.238;11.160;2022-07-04T07:00:17;1.63;;;1.47;;
5704;SDS011;2877;48.238;11.160;2022-07-04T07:02:43;1.70;;;1.60;;
5704;SDS011;2877;48.238;11.160;2022-07-04T07:05:08;1.70;;;1.57;;
5704;SDS011;2877;48.238;11.160;2022-07-04T07:07:34;1.80;;;1.50;;
5704;SDS011;2877;48.238;11.160;2022-07-04T07:10:00;3.57;;;1.70;;
5704;SDS011;2877;48.238;11.160;2022-07-04T07:12:31;1.63;;;1.53;;
5704;SDS011;2877;48.238;11.160;2022-07-04T07:14:57;1.73;;;1.60;;
5704;SDS011;2877;48.238;11.160;2022-07-04T07:17:23;1.93;;;1.50;;
5704;SDS011;2877;48.238;11.160;2022-07-04T07:19:48;3.87;;;1.77;;
5704;SDS011;2877;48.238;11.160;2022-07-04T07:22:14;3.03;;;1.53;;
5704;SDS011;2877;48.238;11.160;2022-07-04T07:24:40;6.53;;;1.73;;
5704;SDS011;2877;48.238;11.160;2022-07-04T07:27:05;1.63;;;1.30;;
5704;SDS011;2877;48.238;11.160;2022-07-04T07:29:33;1.57;;;1.47;;
5704;SDS011;2877;48.238;11.160;2022-07-04T07:31:58;2.27;;;2.07;;
5704;SDS011;2877;48.238;11.160;2022-07-04T07:34:24;1.67;;;1.57;;
5704;SDS011;2877;48.238;11.160;2022-07-04T07:36:50;1.60;;;1.50;;
5704;SDS011;2877;48.238;11.160;2022-07-04T07:39:16;1.50;;;1.40;;
5704;SDS011;2877;48.238;11.160;2022-07-04T07:41:42;1.97;;;1.70;;
5704;SDS011;2877;48.238;11.160;2022-07-04T07:44:07;1.70;;;1.60;;
5704;SDS011;2877;48.238;11.160;2022-07-04T07:46:33;1.50;;;1.40;;
5704;SDS011;2877;48.238;11.160;2022-07-04T07:48:59;1.83;;;1.73;;
5704;SDS011;2877;48.238;11.160;2022-07-04T07:51:24;1.53;;;1.43;;
5704;SDS011;2877;48.238;11.160;2022-07-04T07:53:50;2.20;;;1.50;;
5704;SDS011;2877;48.238;11.160;2022-07-04T07:56:16;3.13;;;1.80;;
5704;SDS011;2877;48.238;11.160;2022-07-04T07:58:41;2.40;;;1.40;;
5704;SDS011;2877;48.238;11.160;2022-07-04T08:01:07;2.00;;;1.70;;
5704;SDS011;2877;48.238;11.160;2022-07-04T08:03:32;5.10;;;2.17;;
5704;SDS011;2877;48.238;11.160;2022-07-04T08:06:17;1.47;;;1.37;;
5704;SDS011;2877;48.238;11.160;2022-07-04T08:08:42;5.17;;;1.50;;
5704;SDS011;2877;48.238;11.160;2022-07-04T08:11:09;1.40;;;1.30;;
5704;SDS011;2877;48.238;11.160;2022-07-04T08:13:36;3.00;;;1.60;;
5704;SDS011;2877;48.238;11.160;2022-07-04T08:16:02;1.57;;;1.47;;
5704;SDS011;2877;48.238;11.160;2022-07-04T08:18:28;1.70;;;1.60;;
5704;SDS011;2877;48.238;11.160;2022-07-04T08:20:54;1.80;;;1.30;;
5704;SDS011;2877;48.238;11.160;2022-07-04T08:23:19;1.33;;;1.23;;
5704;SDS011;2877;48.238;11.160;2022-07-04T08:25:45;1.70;;;1.60;;
5704;SDS011;2877;48.238;11.160;2022-07-04T08:28:11;1.27;;;1.27;;
5704;SDS011;2877;48.238;11.160;2022-07-04T08:30:37;1.50;;;1.40;;
5704;SDS011;2877;48.238;11.160;2022-07-04T08:33:02;1.53;;;1.30;;
5704;SDS011;2877;48.238;11.160;2022-07-04T08:35:28;1.53;;;1.30;;
5704;SDS011;2877;48.238;11.160;2022-07-04T08:37:54;1.50;;;1.40;;
5704;SDS011;2877;48.238;11.160;2022-07-04T08:40:23;1.40;;;1.27;;
5704;SDS011;2877;48.238;11.160;2022-07-04T08:42:50;2.00;;;1.87;;
5704;SDS011;2877;48.238;11.160;2022-07-04T08:45:16;1.73;;;1.60;;
5704;SDS011;2877;48.238;11.160;2022-07-04T08:47:46;2.43;;;1.73;;
5704;SDS011;2877;48.238;11.160;2022-07-04T08:50:25;2.07;;;1.43;;
5704;SDS011;2877;48.238;11.160;2022-07-04T08:52:56;1.37;;;1.17;;
5704;SDS011;2877;48.238;11.160;2022-07-04T08:55:35;1.87;;;1.50;;
5704;SDS011;2877;48.238;11.160;2022-07-04T08:58:19;2.20;;;1.20;;
5704;SDS011;2877;48.238;11.160;2022-07-04T09:01:01;1.30;;;1.20;;
5704;SDS011;2877;48.238;11.160;2022-07-04T09:03:28;5.07;;;1.30;;
5704;SDS011;2877;48.238;11.160;2022-07-04T09:05:55;1.77;;;1.20;;
5704;SDS011;2877;48.238;11.160;2022-07-04T09:08:22;1.27;;;1.17;;
5704;SDS011;2877;48.238;11.160;2022-07-04T09:10:48;1.33;;;1.20;;
5704;SDS011;2877;48.238;11.160;2022-07-04T09:13:15;1.43;;;0.97;;
5704;SDS011;2877;48.238;11.160;2022-07-04T09:15:42;2.03;;;0.97;;
5704;SDS011;2877;48.238;11.160;2022-07-04T09:18:23;2.93;;;1.20;;
5704;SDS011;2877;48.238;11.160;2022-07-04T09:20:54;1.47;;;0.97;;
5704;SDS011;2877;48.238;11.160;2022-07-04T09:23:23;2.60;;;1.20;;
5704;SDS011;2877;48.238;11.160;2022-07-04T09:26:05;1.20;;;1.20;;
5704;SDS011;2877;48.238;11.160;2022-07-04T09:28:34;1.83;;;1.10;;
5704;SDS011;2877;48.238;11.160;2022-07-04T09:31:00;5.63;;;1.10;;
5704;SDS011;2877;48.238;11.160;2022-07-04T09:36:12;2.03;;;1.10;;
5704;SDS011;2877;48.238;11.160;2022-07-04T09:38:38;2.17;;;1.33;;
5704;SDS011;2877;48.238;11.160;2022-07-04T09:41:04;1.20;;;1.20;;
5704;SDS011;2877;48.238;11.160;2022-07-04T09:43:58;1.53;;;1.17;;
5704;SDS011;2877;48.238;11.160;2022-07-04T09:46:32;4.53;;;1.20;;
5704;SDS011;2877;48.238;11.160;2022-07-04T09:48:58;1.30;;;1.20;;
5704;SDS011;2877;48.238;11.160;2022-07-04T09:54:13;1.50;;;1.40;;
5704;SDS011;2877;48.238;11.160;2022-07-04T09:56:47;1.53;;;1.40;;
5704;SDS011;2877;48.238;11.160;2022-07-04T09:59:14;1.20;;;1.10;;
5704;SDS011;2877;48.238;11.160;2022-07-04T10:01:40;3.00;;;1.40;;
5704;SDS011;2877;48.238;11.160;2022-07-04T10:04:06;1.30;;;1.20;;
5704;SDS011;2877;48.238;11.160;2022-07-04T10:06:33;1.43;;;1.23;;
5704;SDS011;2877;48.238;11.160;2022-07-04T10:09:12;2.00;;;1.50;;
5704;SDS011;2877;48.238;11.160;2022-07-04T10:11:40;1.63;;;1.30;;
5704;SDS011;2877;48.238;11.160;2022-07-04T10:14:07;1.47;;;1.37;;
5704;SDS011;2877;48.238;11.160;2022-07-04T10:16:36;1.67;;;1.20;;
5704;SDS011;2877;48.238;11.160;2022-07-04T10:19:03;1.30;;;1.20;;
5704;SDS011;2877;48.238;11.160;2022-07-04T10:21:30;1.30;;;1.20;;
5704;SDS011;2877;48.238;11.160;2022-07-04T10:23:56;2.60;;;1.40;;
5704;SDS011;2877;48.238;11.160;2022-07-04T10:26:22;1.73;;;1.50;;
5704;SDS011;2877;48.238;11.160;2022-07-04T10:28:49;1.40;;;1.30;;
5704;SDS011;2877;48.238;11.160;2022-07-04T10:31:16;1.70;;;1.43;;
5704;SDS011;2877;48.238;11.160;2022-07-04T10:33:47;1.27;;;1.17;;
5704;SDS011;2877;48.238;11.160;2022-07-04T10:36:13;1.67;;;1.57;;
5704;SDS011;2877;48.238;11.160;2022-07-04T10:41:16;4.07;;;1.40;;
5704;SDS011;2877;48.238;11.160;2022-07-04T10:46:24;1.80;;;1.40;;
5704;SDS011;2877;48.238;11.160;2022-07-04T10:52:23;1.43;;;1.17;;
5704;SDS011;2877;48.238;11.160;2022-07-04T10:54:39;5.03;;;1.43;;
5704;SDS011;2877;48.238;11.160;2022-07-04T11:07:17;1.77;;;1.67;;
5704;SDS011;2877;48.238;11.160;2022-07-04T11:09:43;1.77;;;1.30;;
5704;SDS011;2877;48.238;11.160;2022-07-04T11:12:10;1.60;;;1.50;;
5704;SDS011;2877;48.238;11.160;2022-07-04T11:14:46;1.20;;;1.10;;
5704;SDS011;2877;48.238;11.160;2022-07-04T11:17:13;1.70;;;1.60;;
5704;SDS011;2877;48.238;11.160;2022-07-04T11:19:44;1.70;;;1.30;;
5704;SDS011;2877;48.238;11.160;2022-07-04T11:22:09;1.50;;;1.40;;
5704;SDS011;2877;48.238;11.160;2022-07-04T11:24:36;2.37;;;1.43;;
5704;SDS011;2877;48.238;11.160;2022-07-04T11:27:03;1.20;;;1.10;;
5704;SDS011;2877;48.238;11.160;2022-07-04T11:29:31;4.90;;;1.57;;
5704;SDS011;2877;48.238;11.160;2022-07-04T11:31:57;1.40;;;1.40;;
5704;SDS011;2877;48.238;11.160;2022-07-04T11:34:23;1.37;;;1.27;;
5704;SDS011;2877;48.238;11.160;2022-07-04T11:36:49;1.50;;;1.40;;
5704;SDS011;2877;48.238;11.160;2022-07-04T11:39:17;1.60;;;1.50;;
5704;SDS011;2877;48.238;11.160;2022-07-04T11:41:48;1.73;;;1.63;;
5704;SDS011;2877;48.238;11.160;2022-07-04T11:44:37;2.30;;;1.40;;
5704;SDS011;2877;48.238;11.160;2022-07-04T11:47:23;1.50;;;1.40;;
5704;SDS011;2877;48.238;11.160;2022-07-04T11:52:23;1.80;;;1.40;;
5704;SDS011;2877;48.238;11.160;2022-07-04T11:54:50;1.70;;;1.47;;
5704;SDS011;2877;48.238;11.160;2022-07-04T11:57:18;1.30;;;1.23;;
5704;SDS011;2877;48.238;11.160;2022-07-04T11:59:51;1.47;;;1.37;;
5704;SDS011;2877;48.238;11.160;2022-07-04T12:02:19;1.47;;;1.37;;
5704;SDS011;2877;48.238;11.160;2022-07-04T12:04:45;1.37;;;1.27;;
5704;SDS011;2877;48.238;11.160;2022-07-04T12:07:11;1.70;;;1.60;;
5704;SDS011;2877;48.238;11.160;2022-07-04T12:09:39;2.43;;;1.50;;
5704;SDS011;2877;48.238;11.160;2022-07-04T12:12:05;1.60;;;1.33;;
5704;SDS011;2877;48.238;11.160;2022-07-04T12:14:31;3.10;;;1.80;;
5704;SDS011;2877;48.238;11.160;2022-07-04T12:19:37;1.90;;;1.20;;
5704;SDS011;2877;48.238;11.160;2022-07-04T12:22:03;1.30;;;1.20;;
5704;SDS011;2877;48.238;11.160;2022-07-04T12:24:38;1.30;;;1.30;;
5704;SDS011;2877;48.238;11.160;2022-07-04T12:27:15;1.40;;;1.30;;
5704;SDS011;2877;48.238;11.160;2022-07-04T12:29:49;2.50;;;1.30;;
5704;SDS011;2877;48.238;11.160;2022-07-04T12:32:15;1.60;;;1.50;;
5704;SDS011;2877;48.238;11.160;2022-07-04T12:34:42;1.90;;;1.63;;
5704;SDS011;2877;48.238;11.160;2022-07-04T12:37:08;1.60;;;1.50;;
5704;SDS011;2877;48.238;11.160;2022-07-04T12:39:36;1.73;;;1.40;;
5704;SDS011;2877;48.238;11.160;2022-07-04T12:42:18;2.07;;;1.60;;
5704;SDS011;2877;48.238;11.160;2022-07-04T12:44:45;2.73;;;1.27;;
5704;SDS011;2877;48.238;11.160;2022-07-04T12:47:14;1.80;;;1.63;;
5704;SDS011;2877;48.238;11.160;2022-07-04T12:49:44;1.73;;;1.63;;
5704;SDS011;2877;48.238;11.160;2022-07-04T12:52:12;2.13;;;1.30;;
5704;SDS011;2877;48.238;11.160;2022-07-04T12:54:40;2.00;;;1.40;;
5704;SDS011;2877;48.238;11.160;2022-07-04T12:57:16;2.33;;;1.33;;
5704;SDS011;2877;48.238;11.160;2022-07-04T12:59:43;3.07;;;1.50;;
5704;SDS011;2877;48.238;11.160;2022-07-04T13:02:09;1.60;;;1.50;;
5704;SDS011;2877;48.238;11.160;2022-07-04T13:04:37;1.50;;;1.40;;
5704;SDS011;2877;48.238;11.160;2022-07-04T13:07:16;3.17;;;1.30;;
5704;SDS011;2877;48.238;11.160;2022-07-04T13:09:43;1.93;;;1.30;;
5704;SDS011;2877;48.238;11.160;2022-07-04T13:12:10;1.60;;;1.50;;
5704;SDS011;2877;48.238;11.160;2022-07-04T13:14:55;1.50;;;1.40;;
5704;SDS011;2877;48.238;11.160;2022-07-04T13:17:24;1.90;;;1.50;;
5704;SDS011;2877;48.238;11.160;2022-07-04T13:19:50;1.70;;;1.30;;
5704;SDS011;2877;48.238;11.160;2022-07-04T13:22:20;2.30;;;1.47;;
5704;SDS011;2877;48.238;11.160;2022-07-04T13:24:47;1.53;;;1.30;;
5704;SDS011;2877;48.238;11.160;2022-07-04T13:27:13;2.93;;;1.60;;
5704;SDS011;2877;48.238;11.160;2022-07-04T13:29:39;2.40;;;1.80;;
5704;SDS011;2877;48.238;11.160;2022-07-04T13:32:05;1.87;;;1.33;;
5704;SDS011;2877;48.238;11.160;2022-07-04T13:34:31;2.00;;;1.40;;
5704;SDS011;2877;48.238;11.160;2022-07-04T13:36:57;1.67;;;1.33;;
5704;SDS011;2877;48.238;11.160;2022-07-04T13:39:23;1.40;;;1.30;;
5704;SDS011;2877;48.238;11.160;2022-07-04T13:41:49;1.27;;;1.20;;
5704;SDS011;2877;48.238;11.160;2022-07-04T13:44:14;1.53;;;1.43;;
5704;SDS011;2877;48.238;11.160;2022-07-04T13:46:43;2.73;;;1.20;;
5704;SDS011;2877;48.238;11.160;2022-07-04T13:49:09;1.73;;;1.50;;
5704;SDS011;2877;48.238;11.160;2022-07-04T13:51:35;2.17;;;1.40;;
5704;SDS011;2877;48.238;11.160;2022-07-04T13:54:02;1.30;;;1.20;;
5704;SDS011;2877;48.238;11.160;2022-07-04T13:56:27;1.20;;;1.10;;
5704;SDS011;2877;48.238;11.160;2022-07-04T13:58:53;1.63;;;1.53;;
5704;SDS011;2877;48.238;11.160;2022-07-04T14:01:19;1.60;;;1.50;;
5704;SDS011;2877;48.238;11.160;2022-07-04T14:03:45;1.40;;;1.30;;
5704;SDS011;2877;48.238;11.160;2022-07-04T14:06:11;2.33;;;1.50;;
5704;SDS011;2877;48.238;11.160;2022-07-04T14:08:37;1.80;;;1.10;;
5704;SDS011;2877;48.238;11.160;2022-07-04T14:11:03;1.00;;;1.00;;
5704;SDS011;2877;48.238;11.160;2022-07-04T14:13:29;2.73;;;1.50;;
5704;SDS011;2877;48.238;11.160;2022-07-04T14:15:55;1.30;;;1.20;;
5704;SDS011;2877;48.238;11.160;2022-07-04T14:18:21;1.70;;;1.43;;
5704;SDS011;2877;48.238;11.160;2022-07-04T14:20:46;1.97;;;1.37;;
5704;SDS011;2877;48.238;11.160;2022-07-04T14:23:14;1.67;;;1.57;;
5704;SDS011;2877;48.238;11.160;2022-07-04T14:25:59;1.97;;;1.47;;
5704;SDS011;2877;48.238;11.160;2022-07-04T14:28:25;1.60;;;1.50;;
5704;SDS011;2877;48.238;11.160;2022-07-04T14:30:51;2.10;;;1.60;;
5704;SDS011;2877;48.238;11.160;2022-07-04T14:33:16;3.23;;;1.20;;
5704;SDS011;2877;48.238;11.160;2022-07-04T14:35:42;2.53;;;1.20;;
5704;SDS011;2877;48.238;11.160;2022-07-04T14:38:07;1.53;;;1.43;;
5704;SDS011;2877;48.238;11.160;2022-07-04T14:40:33;4.60;;;1.43;;
5704;SDS011;2877;48.238;11.160;2022-07-04T14:42:58;1.77;;;1.60;;
5704;SDS011;2877;48.238;11.160;2022-07-04T14:45:24;3.23;;;1.70;;
5704;SDS011;2877;48.238;11.160;2022-07-04T14:47:49;2.87;;;1.50;;
5704;SDS011;2877;48.238;11.160;2022-07-04T14:50:15;1.37;;;1.27;;
5704;SDS011;2877;48.238;11.160;2022-07-04T14:52:40;3.73;;;1.60;;
5704;SDS011;2877;48.238;11.160;2022-07-04T14:55:06;2.30;;;1.23;;
5704;SDS011;2877;48.238;11.160;2022-07-04T14:57:32;1.33;;;1.23;;
5704;SDS011;2877;48.238;11.160;2022-07-04T14:59:57;1.97;;;1.20;;
5704;SDS011;2877;48.238;11.160;2022-07-04T15:02:23;2.10;;;1.13;;
5704;SDS011;2877;48.238;11.160;2022-07-04T15:04:49;1.50;;;1.30;;
5704;SDS011;2877;48.238;11.160;2022-07-04T15:07:14;1.33;;;1.20;;
5704;SDS011;2877;48.238;11.160;2022-07-04T15:09:40;1.17;;;1.17;;
5704;SDS011;2877;48.238;11.160;2022-07-04T15:12:06;1.23;;;1.10;;
5704;SDS011;2877;48.238;11.160;2022-07-04T15:14:32;1.07;;;1.07;;
5704;SDS011;2877;48.238;11.160;2022-07-04T15:16:57;1.60;;;1.50;;
5704;SDS011;2877;48.238;11.160;2022-07-04T15:19:24;4.83;;;2.40;;
5704;SDS011;2877;48.238;11.160;2022-07-04T15:21:50;1.37;;;1.27;;
5704;SDS011;2877;48.238;11.160;2022-07-04T15:24:34;4.27;;;2.10;;
5704;SDS011;2877;48.238;11.160;2022-07-04T15:26:59;2.30;;;1.60;;
5704;SDS011;2877;48.238;11.160;2022-07-04T15:29:25;1.80;;;1.70;;
5704;SDS011;2877;48.238;11.160;2022-07-04T15:31:51;4.43;;;2.30;;
5704;SDS011;2877;48.238;11.160;2022-07-04T15:34:17;3.63;;;1.70;;